sensor_id;sensor_type;location;lat;lon;timestamp;temperature;humidity
52139;DHT22;38131;53.256;6.460;2022-09-09T15:40:24;20.10;99.90
52139;DHT22;38131;53.256;6.460;2022-09-09T15:42:52;19.80;99.90
52139;DHT22;38131;53.256;6.460;2022-09-09T15:45:18;19.60;99.90
52139;DHT22;38131;53.256;6.460;2022-09-09T15:47:50;19.30;99.90
52139;DHT22;38131;53.256;6.460;2022-09-09T15:50:24;19.50;99.90
52139;DHT22;38131;53.256;6.460;2022-09-09T15:53:16;19.40;99.90
52139;DHT22;38131;53.256;6.460;2022-09-09T15:56:00;19.40;99.90
52139;DHT22;38131;53.256;6.460;2022-09-09T15:58:47;19.40;99.90
52139;DHT22;38131;53.256;6.460;2022-09-09T16:01:20;19.30;99.90
52139;DHT22;38131;53.256;6.460;2022-09-09T16:03:57;19.30;99.90
52139;DHT22;38131;53.256;6.460;2022-09-09T16:06:32;19.10;99.90
52139;DHT22;38131;53.256;6.460;2022-09-09T16:09:22;19.30;99.90
52139;DHT22;38131;53.256;6.460;2022-09-09T16:12:08;19.10;99.90
52139;DHT22;38131;53.256;6.460;2022-09-09T16:14:44;19.20;99.90
52139;DHT22;38131;53.256;6.460;2022-09-09T16:17:17;19.20;99.90
52139;DHT22;38131;53.256;6.460;2022-09-09T16:19:49;19.00;99.90
52139;DHT22;38131;53.256;6.460;2022-09-09T16:22:28;19.20;99.90
52139;DHT22;38131;53.256;6.460;2022-09-09T16:25:03;19.10;99.90
52139;DHT22;38131;53.256;6.460;2022-09-09T16:27:29;18.70;99.90
52139;DHT22;38131;53.256;6.460;2022-09-09T16:29:57;19.00;99.90
52139;DHT22;38131;53.256;6.460;2022-09-09T16:32:31;19.00;99.90
52139;DHT22;38131;53.256;6.460;2022-09-09T16:34:57;18.90;99.90
52139;DHT22;38131;53.256;6.460;2022-09-09T16:37:39;18.80;99.90
52139;DHT22;38131;53.256;6.460;2022-09-09T16:40:19;18.80;99.90
52139;DHT22;38131;53.256;6.460;2022-09-09T16:42:58;18.70;99.90
52139;DHT22;38131;53.256;6.460;2022-09-09T16:45:27;18.60;99.90
52139;DHT22;38131;53.256;6.460;2022-09-09T16:47:55;18.60;99.90
52139;DHT22;38131;53.256;6.460;2022-09-09T16:50:24;18.50;99.90
52139;DHT22;38131;53.256;6.460;2022-09-09T16:52:52;18.40;99.90
52139;DHT22;38131;53.256;6.460;2022-09-09T16:55:21;18.50;99.90
52139;DHT22;38131;53.256;6.460;2022-09-09T16:57:50;18.40;99.90
52139;DHT22;38131;53.256;6.460;2022-09-09T17:00:19;18.40;99.90
52139;DHT22;38131;53.256;6.460;2022-09-09T17:02:45;18.40;99.90
52139;DHT22;38131;53.256;6.460;2022-09-09T17:05:26;18.40;99.90
52139;DHT22;38131;53.256;6.460;2022-09-09T17:07:57;18.40;99.90
52139;DHT22;38131;53.256;6.460;2022-09-09T17:10:43;18.40;99.90
52139;DHT22;38131;53.256;6.460;2022-09-09T17:13:16;18.40;99.90
52139;DHT22;38131;53.256;6.460;2022-09-09T17:15:47;17.80;99.90
52139;DHT22;38131;53.256;6.460;2022-09-09T17:18:18;18.30;99.90
52139;DHT22;38131;53.256;6.460;2022-09-09T17:20:44;18.30;99.90
52139;DHT22;38131;53.256;6.460;2022-09-09T17:23:19;18.30;99.90
52139;DHT22;38131;53.256;6.460;2022-09-09T17:25:59;18.20;99.90
52139;DHT22;38131;53.256;6.460;2022-09-09T17:28:30;18.20;99.90
52139;DHT22;38131;53.256;6.460;2022-09-09T17:31:00;18.10;99.90
52139;DHT22;38131;53.256;6.460;2022-09-09T17:33:36;18.10;99.90
52139;DHT22;38131;53.256;6.460;2022-09-09T17:36:16;18.00;99.90
52139;DHT22;38131;53.256;6.460;2022-09-09T17:38:43;18.00;99.90
52139;DHT22;38131;53.256;6.460;2022-09-09T17:41:24;18.00;99.90
52139;DHT22;38131;53.256;6.460;2022-09-09T17:43:53;17.90;99.90
52139;DHT22;38131;53.256;6.460;2022-09-09T17:46:39;18.00;99.90
52139;DHT22;38131;53.256;6.460;2022-09-09T17:49:14;17.90;99.90
52139;DHT22;38131;53.256;6.460;2022-09-09T17:51:46;18.00;99.90
52139;DHT22;38131;53.256;6.460;2022-09-09T17:54:30;18.00;99.90
52139;DHT22;38131;53.256;6.460;2022-09-09T17:57:03;18.00;99.90
52139;DHT22;38131;53.256;6.460;2022-09-09T17:59:32;17.90;99.90
52139;DHT22;38131;53.256;6.460;2022-09-09T18:01:59;18.20;99.90
52139;DHT22;38131;53.256;6.460;2022-09-09T18:04:30;17.90;99.90
52139;DHT22;38131;53.256;6.460;2022-09-09T18:06:57;17.90;99.90
52139;DHT22;38131;53.256;6.460;2022-09-09T18:09:26;17.80;99.90
52139;DHT22;38131;53.256;6.460;2022-09-09T18:11:57;17.70;99.90
52139;DHT22;38131;53.256;6.460;2022-09-09T18:14:26;17.60;99.90
52139;DHT22;38131;53.256;6.460;2022-09-09T18:17:09;18.40;99.90
52139;DHT22;38131;53.256;6.460;2022-09-09T18:19:38;17.50;99.90
52139;DHT22;38131;53.256;6.460;2022-09-09T18:22:05;17.40;99.90
52139;DHT22;38131;53.256;6.460;2022-09-09T18:24:37;17.40;99.90
52139;DHT22;38131;53.256;6.460;2022-09-09T18:27:17;17.40;99.90
52139;DHT22;38131;53.256;6.460;2022-09-09T18:29:49;17.40;99.90
52139;DHT22;38131;53.256;6.460;2022-09-09T18:32:18;17.90;99.90
52139;DHT22;38131;53.256;6.460;2022-09-09T18:34:44;17.40;99.90
52139;DHT22;38131;53.256;6.460;2022-09-09T18:37:15;17.30;99.90
52139;DHT22;38131;53.256;6.460;2022-09-09T18:39:42;17.50;99.90
52139;DHT22;38131;53.256;6.460;2022-09-09T18:42:10;17.30;99.90
52139;DHT22;38131;53.256;6.460;2022-09-09T18:44:41;17.30;99.90
52139;DHT22;38131;53.256;6.460;2022-09-09T18:47:08;17.30;99.90
52139;DHT22;38131;53.256;6.460;2022-09-09T18:49:35;17.30;99.90
52139;DHT22;38131;53.256;6.460;2022-09-09T18:52:01;17.20;99.90
52139;DHT22;38131;53.256;6.460;2022-09-09T18:54:37;17.20;99.90
52139;DHT22;38131;53.256;6.460;2022-09-09T18:57:25;17.20;99.90
52139;DHT22;38131;53.256;6.460;2022-09-09T19:00:05;17.20;99.90
52139;DHT22;38131;53.256;6.460;2022-09-09T19:02:40;17.10;99.90
52139;DHT22;38131;53.256;6.460;2022-09-09T19:05:15;17.10;99.90
52139;DHT22;38131;53.256;6.460;2022-09-09T19:08:01;17.10;99.90
52139;DHT22;38131;53.256;6.460;2022-09-09T19:10:27;17.10;99.90
52139;DHT22;38131;53.256;6.460;2022-09-09T19:13:06;17.10;99.90
52139;DHT22;38131;53.256;6.460;2022-09-09T19:15:38;17.10;99.90
52139;DHT22;38131;53.256;6.460;2022-09-09T19:18:43;17.10;99.90
52139;DHT22;38131;53.256;6.460;2022-09-09T19:21:38;17.10;99.90
52139;DHT22;38131;53.256;6.460;2022-09-09T19:24:22;17.20;99.90
52139;DHT22;38131;53.256;6.460;2022-09-09T19:27:01;17.20;99.90
52139;DHT22;38131;53.256;6.460;2022-09-09T19:30:33;17.30;99.90
52139;DHT22;38131;53.256;6.460;2022-09-09T19:32:53;17.30;99.90
52139;DHT22;38131;53.256;6.460;2022-09-09T19:35:19;17.30;99.90
52139;DHT22;38131;53.256;6.460;2022-09-09T19:37:53;17.30;99.90
52139;DHT22;38131;53.256;6.460;2022-09-09T19:40:27;17.30;99.90
52139;DHT22;38131;53.256;6.460;2022-09-09T19:43:03;17.30;99.90
52139;DHT22;38131;53.256;6.460;2022-09-09T19:45:31;17.00;99.90
52139;DHT22;38131;53.256;6.460;2022-09-09T19:48:02;17.30;99.90
52139;DHT22;38131;53.256;6.460;2022-09-09T19:50:34;17.30;99.90
52139;DHT22;38131;53.256;6.460;2022-09-09T19:53:01;17.30;99.90
52139;DHT22;38131;53.256;6.460;2022-09-09T19:55:28;17.20;99.90
52139;DHT22;38131;53.256;6.460;2022-09-09T19:58:00;17.10;99.90
52139;DHT22;38131;53.256;6.460;2022-09-09T20:00:36;17.00;99.90
52139;DHT22;38131;53.256;6.460;2022-09-09T20:03:03;16.90;99.90
52139;DHT22;38131;53.256;6.460;2022-09-09T20:05:30;16.90;99.90
52139;DHT22;38131;53.256;6.460;2022-09-09T20:07:57;16.80;99.90
52139;DHT22;38131;53.256;6.460;2022-09-09T20:10:28;16.80;99.90
52139;DHT22;38131;53.256;6.460;2022-09-09T20:13:04;16.70;99.90
52139;DHT22;38131;53.256;6.460;2022-09-09T20:15:33;16.70;99.90
52139;DHT22;38131;53.256;6.460;2022-09-09T20:18:00;17.00;99.90
52139;DHT22;38131;53.256;6.460;2022-09-09T20:20:29;16.70;99.90
52139;DHT22;38131;53.256;6.460;2022-09-09T20:22:55;16.70;99.90
52139;DHT22;38131;53.256;6.460;2022-09-09T20:25:23;16.70;99.90
52139;DHT22;38131;53.256;6.460;2022-09-09T20:27:49;16.60;99.90
52139;DHT22;38131;53.256;6.460;2022-09-09T20:30:17;16.60;99.90
52139;DHT22;38131;53.256;6.460;2022-09-09T20:32:42;16.60;99.90
52139;DHT22;38131;53.256;6.460;2022-09-09T20:35:10;16.60;99.90
52139;DHT22;38131;53.256;6.460;2022-09-09T20:37:39;16.60;99.90
52139;DHT22;38131;53.256;6.460;2022-09-09T20:40:05;16.40;99.90
52139;DHT22;38131;53.256;6.460;2022-09-09T20:42:37;16.70;99.90
52139;DHT22;38131;53.256;6.460;2022-09-09T20:45:08;15.60;99.90
52139;DHT22;38131;53.256;6.460;2022-09-09T20:47:43;16.50;99.90
52139;DHT22;38131;53.256;6.460;2022-09-09T20:50:12;16.50;99.90
52139;DHT22;38131;53.256;6.460;2022-09-09T20:52:40;16.50;99.90
52139;DHT22;38131;53.256;6.460;2022-09-09T20:55:06;16.40;99.90
52139;DHT22;38131;53.256;6.460;2022-09-09T20:57:34;16.40;99.90
52139;DHT22;38131;53.256;6.460;2022-09-09T21:00:02;16.40;99.90
52139;DHT22;38131;53.256;6.460;2022-09-09T21:02:29;16.40;99.90
52139;DHT22;38131;53.256;6.460;2022-09-09T21:07:39;16.40;99.90
52139;DHT22;38131;53.256;6.460;2022-09-09T21:10:12;16.30;99.90
52139;DHT22;38131;53.256;6.460;2022-09-09T21:12:40;16.30;99.90
52139;DHT22;38131;53.256;6.460;2022-09-09T21:15:26;16.30;99.90
52139;DHT22;38131;53.256;6.460;2022-09-09T21:17:55;16.40;99.90
52139;DHT22;38131;53.256;6.460;2022-09-09T21:20:24;16.40;99.90
52139;DHT22;38131;53.256;6.460;2022-09-09T21:22:53;16.40;99.90
52139;DHT22;38131;53.256;6.460;2022-09-09T21:25:21;16.40;99.90
52139;DHT22;38131;53.256;6.460;2022-09-09T21:27:53;16.40;99.90
52139;DHT22;38131;53.256;6.460;2022-09-09T21:30:19;16.40;99.90
52139;DHT22;38131;53.256;6.460;2022-09-09T21:33:13;16.50;99.90
52139;DHT22;38131;53.256;6.460;2022-09-09T21:35:40;16.50;99.90
52139;DHT22;38131;53.256;6.460;2022-09-09T21:38:12;16.40;99.90
52139;DHT22;38131;53.256;6.460;2022-09-09T21:40:43;16.40;99.90
52139;DHT22;38131;53.256;6.460;2022-09-09T21:43:13;16.40;99.90
52139;DHT22;38131;53.256;6.460;2022-09-09T21:45:40;16.40;99.90
52139;DHT22;38131;53.256;6.460;2022-09-09T21:48:15;16.40;99.90
52139;DHT22;38131;53.256;6.460;2022-09-09T21:50:45;16.20;99.90
52139;DHT22;38131;53.256;6.460;2022-09-09T21:53:15;16.40;99.90
52139;DHT22;38131;53.256;6.460;2022-09-09T21:55:45;16.10;99.90
52139;DHT22;38131;53.256;6.460;2022-09-09T21:58:14;16.30;99.90
52139;DHT22;38131;53.256;6.460;2022-09-09T22:00:43;16.30;99.90
52139;DHT22;38131;53.256;6.460;2022-09-09T22:03:27;16.30;99.90
52139;DHT22;38131;53.256;6.460;2022-09-09T22:06:29;16.30;99.90
52139;DHT22;38131;53.256;6.460;2022-09-09T22:19:55;16.30;99.90
52139;DHT22;38131;53.256;6.460;2022-09-09T22:22:23;16.40;99.90
52139;DHT22;38131;53.256;6.460;2022-09-09T22:24:49;16.40;99.90
52139;DHT22;38131;53.256;6.460;2022-09-09T22:27:16;16.30;99.90
52139;DHT22;38131;53.256;6.460;2022-09-09T22:29:42;16.40;99.90
52139;DHT22;38131;53.256;6.460;2022-09-09T22:32:09;16.30;99.90
52139;DHT22;38131;53.256;6.460;2022-09-09T22:34:37;16.30;99.90
52139;DHT22;38131;53.256;6.460;2022-09-09T22:37:04;16.50;99.90
52139;DHT22;38131;53.256;6.460;2022-09-09T22:39:32;16.30;99.90
52139;DHT22;38131;53.256;6.460;2022-09-09T22:41:58;16.20;99.90
52139;DHT22;38131;53.256;6.460;2022-09-09T22:44:27;16.10;99.90
52139;DHT22;38131;53.256;6.460;2022-09-09T22:46:55;16.10;99.90
52139;DHT22;38131;53.256;6.460;2022-09-09T22:49:22;15.90;99.90
52139;DHT22;38131;53.256;6.460;2022-09-09T22:51:48;16.00;99.90
52139;DHT22;38131;53.256;6.460;2022-09-09T22:54:14;15.90;99.90
52139;DHT22;38131;53.256;6.460;2022-09-09T22:56:47;15.90;99.90
52139;DHT22;38131;53.256;6.460;2022-09-09T22:59:13;15.90;99.90
52139;DHT22;38131;53.256;6.460;2022-09-09T23:01:42;15.80;99.90
52139;DHT22;38131;53.256;6.460;2022-09-09T23:04:11;15.70;99.90
52139;DHT22;38131;53.256;6.460;2022-09-09T23:06:38;15.70;99.90
52139;DHT22;38131;53.256;6.460;2022-09-09T23:09:06;15.60;99.90
52139;DHT22;38131;53.256;6.460;2022-09-09T23:11:36;15.70;99.90
52139;DHT22;38131;53.256;6.460;2022-09-09T23:14:06;15.60;99.90
52139;DHT22;38131;53.256;6.460;2022-09-09T23:16:57;15.60;99.90
52139;DHT22;38131;53.256;6.460;2022-09-09T23:19:23;15.50;99.90
52139;DHT22;38131;53.256;6.460;2022-09-09T23:21:52;15.50;99.90
52139;DHT22;38131;53.256;6.460;2022-09-09T23:24:18;15.40;99.90
52139;DHT22;38131;53.256;6.460;2022-09-09T23:26:44;15.40;99.90
52139;DHT22;38131;53.256;6.460;2022-09-09T23:29:14;15.60;99.90
52139;DHT22;38131;53.256;6.460;2022-09-09T23:31:42;15.40;99.90
52139;DHT22;38131;53.256;6.460;2022-09-09T23:34:12;15.30;99.90
52139;DHT22;38131;53.256;6.460;2022-09-09T23:36:45;15.30;99.90
52139;DHT22;38131;53.256;6.460;2022-09-09T23:39:13;15.30;99.90
52139;DHT22;38131;53.256;6.460;2022-09-09T23:41:43;15.30;99.90
52139;DHT22;38131;53.256;6.460;2022-09-09T23:44:15;15.40;99.90
52139;DHT22;38131;53.256;6.460;2022-09-09T23:46:43;15.50;99.90
52139;DHT22;38131;53.256;6.460;2022-09-09T23:49:10;15.50;99.90
52139;DHT22;38131;53.256;6.460;2022-09-09T23:51:37;15.50;99.90
52139;DHT22;38131;53.256;6.460;2022-09-09T23:54:04;15.50;99.90
52139;DHT22;38131;53.256;6.460;2022-09-09T23:56:34;15.60;99.90
52139;DHT22;38131;53.256;6.460;2022-09-09T23:59:03;14.90;99.90
